Time;durP1;ratioP1;P1;durP2;ratioP2;P2;SDS_P1;SDS_P2;PMS_P1;PMS_P2;Temp;Humidity;BMP_temperature;BMP_pressure;BME280_temperature;BME280_humidity;BME280_pressure;Samples;Min_cycle;Max_cycle;Signal;HPM_P1;HPM_P2
2023/03/19 07:01:09;;;;;;;11.43;10.27;;;;;;;-145.79;89.87;77860.56;5321273;27;20351;-73
2023/03/19 07:03:40;;;;;;;10.70;9.70;;;;;;;-145.79;90.18;77858.47;5322948;28;20028;-73
2023/03/19 07:06:12;;;;;;;11.25;10.15;;;;;;;-145.79;90.66;77854.22;5321679;28;20089;-74
2023/03/19 07:08:45;;;;;;;12.43;9.98;;;;;;;-145.79;90.50;77858.47;5322064;28;20012;-73
2023/03/19 07:11:16;;;;;;;11.73;10.00;;;;;;;-145.79;90.72;77866.94;5309461;27;20036;-73
2023/03/19 07:13:48;;;;;;;10.68;9.50;;;;;;;-145.79;91.03;77862.69;5300675;28;20020;-73
2023/03/19 07:16:19;;;;;;;11.07;10.10;;;;;;;-145.79;90.71;77858.47;5300326;28;20078;-73
2023/03/19 07:18:50;;;;;;;9.75;8.88;;;;;;;-145.79;90.71;77860.56;5300736;28;20483;-73
2023/03/19 07:21:22;;;;;;;9.50;8.57;;;;;;;-145.79;90.79;77852.09;5300201;28;20059;-73
2023/03/19 07:23:53;;;;;;;9.98;8.98;;;;;;;-145.79;90.90;77852.09;5301520;28;20074;-73
2023/03/19 07:26:24;;;;;;;10.68;9.55;;;;;;;-145.79;90.90;77839.38;5299461;28;20099;-73
2023/03/19 07:28:55;;;;;;;9.75;8.85;;;;;;;-145.79;90.89;77849.97;5299805;28;20024;-73
2023/03/19 07:31:27;;;;;;;11.02;9.93;;;;;;;-145.79;90.66;77849.97;5300462;28;20027;-74
2023/03/19 07:33:58;;;;;;;10.05;9.02;;;;;;;-145.79;90.28;77843.63;5300033;28;20028;-74
2023/03/19 07:36:30;;;;;;;9.70;8.75;;;;;;;-145.79;90.26;77845.75;5298761;28;20122;-73
2023/03/19 07:39:02;;;;;;;8.77;7.82;;;;;;;-145.79;89.40;77835.13;5300164;28;20081;-72
2023/03/19 07:41:33;;;;;;;7.97;7.15;;;;;;;-145.79;88.34;77839.38;5298841;27;20035;-72
2023/03/19 07:44:07;;;;;;;10.45;8.52;;;;;;;-145.79;87.38;77847.84;5299360;27;20028;-72
2023/03/19 07:46:39;;;;;;;9.73;7.22;;;;;;;-145.79;87.48;77856.34;5298058;28;20020;-72
2023/03/19 07:49:10;;;;;;;8.50;7.60;;;;;;;-145.79;87.81;77847.84;5297017;28;20028;-73
2023/03/19 07:51:42;;;;;;;10.65;7.22;;;;;;;-145.79;87.22;77839.38;5298090;28;20081;-73
2023/03/19 07:54:13;;;;;;;8.80;7.90;;;;;;;-145.79;87.15;77837.25;5297942;28;20021;-73
2023/03/19 07:56:44;;;;;;;8.32;7.50;;;;;;;-145.79;87.65;77835.13;5296978;28;20518;-73
2023/03/19 07:59:16;;;;;;;9.93;8.35;;;;;;;-145.79;86.56;77835.13;5298514;28;20495;-74
2023/03/19 08:01:50;;;;;;;10.07;7.70;;;;;;;-145.79;87.01;77830.91;5292003;28;20035;-73
2023/03/19 08:04:21;;;;;;;17.17;9.65;;;;;;;-145.79;87.21;77822.41;5298456;28;20021;-73
2023/03/19 08:06:53;;;;;;;13.73;8.88;;;;;;;-145.79;86.64;77813.94;5290746;28;20023;-72
2023/03/19 08:09:24;;;;;;;13.20;8.05;;;;;;;-145.79;86.08;77818.19;5298129;28;20516;-73
2023/03/19 08:11:56;;;;;;;12.68;7.72;;;;;;;-145.79;85.81;77818.19;5288063;28;20104;-72
2023/03/19 08:14:27;;;;;;;13.00;8.13;;;;;;;-145.79;84.45;77826.66;5284633;28;20059;-73
2023/03/19 08:16:59;;;;;;;10.05;8.32;;;;;;;-145.79;84.95;77833.03;5283623;28;20028;-72
2023/03/19 08:19:31;;;;;;;13.35;8.40;;;;;;;-145.79;84.60;77839.38;5285072;28;20047;-73
2023/03/19 08:22:02;;;;;;;13.30;8.63;;;;;;;-145.79;84.44;77843.63;5285198;28;20107;-73
2023/03/19 08:24:34;;;;;;;14.00;7.60;;;;;;;-145.79;84.53;77852.09;5285955;28;20031;-73
2023/03/19 08:27:05;;;;;;;13.45;8.57;;;;;;;-145.79;84.79;77858.47;5284842;28;20021;-73
2023/03/19 08:29:36;;;;;;;15.50;8.73;;;;;;;-145.79;85.02;77847.84;5283811;28;20024;-73
2023/03/19 08:32:08;;;;;;;13.93;9.45;;;;;;;-145.79;84.37;77856.34;5283822;28;20113;-74
2023/03/19 08:34:39;;;;;;;11.25;8.50;;;;;;;-145.79;84.60;77845.75;5283117;28;20520;-73
2023/03/19 08:37:11;;;;;;;11.38;8.75;;;;;;;-145.79;84.61;77847.84;5282271;28;20158;-71
2023/03/19 08:39:42;;;;;;;14.77;9.27;;;;;;;-145.79;84.41;77858.47;5282062;28;20045;-74
2023/03/19 08:42:13;;;;;;;10.13;8.30;;;;;;;-145.79;83.84;77847.84;5281917;28;20027;-73
2023/03/19 08:44:45;;;;;;;15.38;8.68;;;;;;;-145.79;83.10;77860.56;5282395;28;20028;-73
2023/03/19 08:47:16;;;;;;;13.50;7.95;;;;;;;-145.79;83.23;77856.34;5282775;28;20029;-71
2023/03/19 08:49:47;;;;;;;13.68;7.85;;;;;;;-145.79;83.39;77843.63;5282719;28;20016;-72
2023/03/19 08:52:19;;;;;;;11.02;7.90;;;;;;;-145.79;83.85;77839.38;5281933;28;20031;-72
2023/03/19 08:54:50;;;;;;;11.90;7.75;;;;;;;-145.79;82.85;77835.13;5283853;28;20020;-72
2023/03/19 08:57:22;;;;;;;13.52;8.07;;;;;;;-145.79;81.94;77839.38;5284612;28;20109;-73
2023/03/19 08:59:53;;;;;;;13.55;8.23;;;;;;;-145.79;82.35;77835.13;5283438;28;20072;-72
2023/03/19 09:02:25;;;;;;;12.90;7.25;;;;;;;-145.79;82.75;77826.66;5284381;28;20047;-72
2023/03/19 09:04:56;;;;;;;11.65;5.95;;;;;;;-145.79;81.36;77828.78;5285029;28;20059;-71
2023/03/19 09:07:30;;;;;;;12.23;6.15;;;;;;;-145.79;81.39;77839.38;5283223;28;20024;-73
2023/03/19 09:10:02;;;;;;;13.73;7.90;;;;;;;-145.79;80.86;77841.50;5284230;28;20059;-72
2023/03/19 09:12:33;;;;;;;12.60;5.93;;;;;;;-145.79;79.92;77833.03;5282705;28;20411;-74
2023/03/19 09:15:05;;;;;;;14.43;6.22;;;;;;;-145.79;79.50;77839.38;5284601;28;20487;-74
2023/03/19 09:17:36;;;;;;;11.18;6.05;;;;;;;-145.79;79.39;77837.25;5283448;28;20036;-75
2023/03/19 09:20:09;;;;;;;10.23;6.43;;;;;;;-145.79;79.47;77826.66;5283624;28;20380;-74
2023/03/19 09:22:40;;;;;;;9.50;5.68;;;;;;;-145.79;79.52;77822.41;5282557;28;20029;-74
2023/03/19 09:25:11;;;;;;;15.13;6.68;;;;;;;-145.79;79.18;77809.69;5284341;28;20021;-74
2023/03/19 09:27:43;;;;;;;18.50;6.43;;;;;;;-145.79;79.07;77796.97;5283128;28;20102;-72
2023/03/19 09:30:14;;;;;;;14.32;6.50;;;;;;;-145.79;78.30;77788.50;5284058;28;20115;-75
2023/03/19 09:32:45;;;;;;;13.90;6.47;;;;;;;-145.79;78.54;77775.78;5283486;28;20039;-74
2023/03/19 09:35:17;;;;;;;10.77;5.60;;;;;;;-145.79;76.62;77790.63;5283381;28;20024;-73
2023/03/19 09:37:48;;;;;;;11.30;6.30;;;;;;;-145.79;77.29;77775.78;5284090;28;20024;-74
2023/03/19 09:40:28;;;;;;;11.73;6.68;;;;;;;-145.79;78.19;77756.72;5284367;28;20028;-73
2023/03/19 09:43:36;;;;;;;14.90;6.03;;;;;;;-145.79;77.28;77737.63;5283340;28;20128;-73
2023/03/19 09:46:15;;;;;;;11.27;6.05;;;;;;;-145.79;77.50;77735.50;5284107;28;20024;-74
2023/03/19 09:48:54;;;;;;;11.38;6.57;;;;;;;-145.79;77.58;77716.44;5282594;28;20032;-74
2023/03/19 09:51:42;;;;;;;12.82;6.80;;;;;;;-145.79;76.37;77716.44;5283555;28;20032;-75
2023/03/19 09:54:22;;;;;;;12.63;7.53;;;;;;;-145.79;76.38;77729.16;5283510;28;20145;-75
2023/03/19 09:56:54;;;;;;;13.30;6.88;;;;;;;-145.79;75.98;77722.78;5282799;28;20476;-74
2023/03/19 09:59:27;;;;;;;13.55;7.03;;;;;;;-145.79;76.30;77714.31;5281723;28;20056;-75
2023/03/19 10:02:03;;;;;;;13.68;6.50;;;;;;;-145.79;74.86;77703.72;5282373;28;20147;-75
2023/03/19 10:04:53;;;;;;;53.00;44.05;;;;;;;-145.79;74.55;77691.00;5283780;28;20025;-74
2023/03/19 10:07:46;;;;;;;12.85;6.85;;;;;;;-145.79;74.31;77682.50;5283779;28;20055;-74
2023/03/19 10:10:26;;;;;;;13.20;5.18;;;;;;;-145.79;74.63;77699.47;5282500;28;20032;-77
2023/03/19 10:13:16;;;;;;;10.23;4.72;;;;;;;-145.79;74.40;77693.13;5283107;28;20028;-78
2023/03/19 10:15:49;;;;;;;10.07;5.28;;;;;;;-145.79;74.93;77691.00;5282949;28;20464;-76
2023/03/19 10:18:31;;;;;;;14.65;6.10;;;;;;;-145.79;74.58;77682.50;5282094;28;20519;-73
2023/03/19 10:21:11;;;;;;;12.40;6.05;;;;;;;-145.79;74.17;77661.31;5278776;28;20051;-73
2023/03/19 10:24:02;;;;;;;12.55;5.22;;;;;;;-145.79;74.26;77646.47;5281265;28;20480;-73
2023/03/19 10:26:34;;;;;;;9.43;5.57;;;;;;;-145.79;73.50;77640.13;5271290;28;20037;-71
2023/03/19 10:29:18;;;;;;;11.40;5.30;;;;;;;-145.79;72.73;77629.53;5280260;28;20039;-70
2023/03/19 10:32:08;;;;;;;13.23;5.63;;;;;;;-145.79;72.64;77616.81;5279112;28;20039;-70
2023/03/19 10:34:47;;;;;;;9.88;4.72;;;;;;;-145.79;71.49;77595.59;5279511;28;20025;-74
2023/03/19 10:37:25;;;;;;;10.82;6.03;;;;;;;-145.79;70.85;77606.19;5279477;28;20028;-73
2023/03/19 10:39:59;;;;;;;9.02;5.10;;;;;;;-145.79;70.83;77608.31;5281220;28;20029;-73
2023/03/19 10:42:52;;;;;;;11.38;5.43;;;;;;;-145.79;71.28;77595.59;5283091;28;20035;-74
2023/03/19 10:45:30;;;;;;;9.60;4.47;;;;;;;-145.79;69.61;77597.72;5281115;28;20163;-74
2023/03/19 10:48:03;;;;;;;7.82;4.50;;;;;;;-145.79;69.45;77601.97;5282130;28;20024;-73
2023/03/19 10:51:00;;;;;;;7.40;4.25;;;;;;;-145.79;69.56;77597.72;5282156;28;20471;-73
2023/03/19 10:53:34;;;;;;;7.80;3.95;;;;;;;-145.79;69.60;77589.25;5278641;28;20527;-74
2023/03/19 10:56:18;;;;;;;7.70;4.13;;;;;;;-145.79;69.79;77599.84;5279823;28;20040;-75
2023/03/19 10:59:19;;;;;;;15.45;10.98;;;;;;;-145.79;70.41;77585.00;5280998;28;20063;-75
2023/03/19 11:02:00;;;;;;;13.05;11.68;;;;;;;-145.79;69.41;77582.88;5277907;28;20036;-74
2023/03/19 11:04:31;;;;;;;10.68;4.95;;;;;;;-145.79;68.90;77572.28;5279904;28;20033;-73
2023/03/19 11:07:13;;;;;;;9.30;4.50;;;;;;;-145.79;69.32;77551.09;5279833;28;20051;-74
2023/03/19 11:09:48;;;;;;;8.48;3.75;;;;;;;-145.79;68.67;77532.00;5280049;28;20029;-74
2023/03/19 11:12:25;;;;;;;9.38;4.55;;;;;;;-145.79;68.32;77525.66;5278718;28;20039;-73
2023/03/19 11:14:57;;;;;;;10.00;4.78;;;;;;;-145.79;67.88;77521.41;5280153;28;20029;-75
2023/03/19 11:17:36;;;;;;;8.13;4.25;;;;;;;-145.79;67.44;77512.94;5281925;28;20346;-72
2023/03/19 11:20:31;;;;;;;7.05;4.15;;;;;;;-145.79;68.36;77534.13;5263186;28;20392;-73
2023/03/19 11:23:13;;;;;;;9.18;4.85;;;;;;;-145.79;68.81;77574.41;5280907;28;20020;-74
2023/03/19 11:25:53;;;;;;;9.80;5.07;;;;;;;-145.79;68.55;77589.25;5282101;28;20383;-74
2023/03/19 11:28:28;;;;;;;8.45;4.45;;;;;;;-145.79;69.55;77606.19;5281823;28;20476;-74
2023/03/19 11:31:11;;;;;;;10.38;6.30;;;;;;;-145.79;71.79;77642.25;5281836;28;20440;-74
2023/03/19 11:34:04;;;;;;;19.60;17.10;;;;;;;-145.79;71.65;77631.63;5281593;28;20025;-73
2023/03/19 11:36:51;;;;;;;11.90;9.07;;;;;;;-145.79;72.75;77657.06;5282330;28;20388;-75
2023/03/19 11:39:27;;;;;;;11.73;7.93;;;;;;;-145.79;72.04;77652.84;5282101;28;20040;-73
2023/03/19 11:42:09;;;;;;;11.05;8.45;;;;;;;-145.79;72.17;77657.06;5281340;28;20089;-72
2023/03/19 11:44:41;;;;;;;11.60;8.32;;;;;;;-145.79;71.41;77644.34;5277337;28;20066;-73
2023/03/19 11:47:27;;;;;;;11.85;9.18;;;;;;;-145.79;72.19;77631.63;5284020;28;20435;-72
2023/03/19 11:50:07;;;;;;;;;;;;;;;-145.79;70.87;77597.72;5266706;28;20112;-73
2023/03/19 11:52:50;;;;;;;12.02;9.38;;;;;;;-145.79;70.52;77601.97;5265110;28;19955;-72
2023/03/19 11:55:34;;;;;;;10.80;9.80;;;;;;;-145.79;70.33;77589.25;5284915;28;20040;-74
2023/03/19 11:58:56;;;;;;;9.85;8.82;;;;;;;-145.79;69.64;77578.66;5285928;28;20059;-73
2023/03/19 12:01:58;;;;;;;12.25;8.73;;;;;;;-145.79;69.09;77568.03;5258072;28;20052;-74
2023/03/19 12:04:48;;;;;;;9.77;8.02;;;;;;;-145.79;68.84;77548.97;5284430;28;20394;-73
2023/03/19 12:07:30;;;;;;;10.80;8.15;;;;;;;-145.79;68.28;77553.22;5285321;28;20032;-71
2023/03/19 12:10:14;;;;;;;12.57;8.70;;;;;;;-145.79;68.42;77565.94;5278954;28;20047;-74
2023/03/19 12:12:57;;;;;;;10.73;8.38;;;;;;;-145.79;67.42;77572.28;5284983;28;20082;-73
2023/03/19 12:15:57;;;;;;;7.50;6.78;;;;;;;-145.79;67.45;77565.94;5281705;28;20499;-73
2023/03/19 12:18:44;;;;;;;12.30;7.85;;;;;;;-145.79;67.77;77580.75;5284343;28;20345;-73
2023/03/19 12:21:31;;;;;;;12.00;8.30;;;;;;;-145.79;67.98;77589.25;5283990;28;20316;-74
2023/03/19 12:24:22;;;;;;;10.45;8.02;;;;;;;-145.79;68.50;77574.41;5284290;28;20051;-74
2023/03/19 12:26:54;;;;;;;13.40;9.07;;;;;;;-145.79;68.28;77576.53;5284618;28;20356;-74
2023/03/19 12:29:45;;;;;;;10.60;9.55;;;;;;;-145.79;68.58;77601.97;5284290;28;20036;-75
2023/03/19 12:32:26;;;;;;;14.25;11.40;;;;;;;-145.79;69.99;77623.16;5284791;28;20028;-74
2023/03/19 12:35:05;;;;;;;14.63;12.80;;;;;;;-145.79;70.34;77614.69;5285045;28;20384;-73
2023/03/19 12:37:58;;;;;;;19.00;14.38;;;;;;;-145.79;70.76;77606.19;5279986;28;20225;-70
2023/03/19 12:40:55;;;;;;;132.93;119.82;;;;;;;-145.79;70.57;77614.69;5280864;28;20064;-72
2023/03/19 12:43:48;;;;;;;15.52;14.00;;;;;;;-145.79;70.52;77610.44;5283351;28;20545;-71
2023/03/19 12:47:01;;;;;;;15.98;14.38;;;;;;;-145.79;71.10;77599.84;5284717;28;20027;-72
2023/03/19 12:49:40;;;;;;;16.30;14.30;;;;;;;-145.79;69.37;77597.72;5277630;28;20044;-72
2023/03/19 12:52:41;;;;;;;14.95;13.45;;;;;;;-145.79;68.82;77601.97;5279208;28;20021;-72
2023/03/19 12:55:15;;;;;;;13.25;11.95;;;;;;;-145.79;68.12;77576.53;5281862;28;20060;-71
2023/03/19 12:57:46;;;;;;;15.38;13.77;;;;;;;-145.79;67.55;77551.09;5281147;28;20052;-72
2023/03/19 13:00:27;;;;;;;14.93;13.30;;;;;;;-145.79;66.39;77540.50;5284015;28;20483;-74
2023/03/19 13:03:21;;;;;;;14.75;13.23;;;;;;;-145.79;65.59;77538.38;5281774;28;20028;-73
2023/03/19 13:06:02;;;;;;;17.08;14.18;;;;;;;-145.79;65.88;77544.72;5282956;28;20103;-73
2023/03/19 13:08:54;;;;;;;18.73;16.95;;;;;;;-145.79;65.72;77527.78;5283198;28;20051;-74
2023/03/19 13:11:47;;;;;;;17.17;15.38;;;;;;;-145.79;65.36;77468.41;5283604;28;20540;-73
2023/03/19 13:14:33;;;;;;;15.75;14.32;;;;;;;-145.79;63.58;77468.41;5283154;28;20116;-73
2023/03/19 13:17:26;;;;;;;;;;;;;;;-145.79;63.95;77445.09;5284923;28;20039;-75
2023/03/19 13:19:58;;;;;;;24.90;22.23;;;;;;;-145.79;63.72;77445.09;5287006;28;19912;-74
2023/03/19 13:22:34;;;;;;;43.00;37.70;;;;;;;-145.79;63.49;77487.50;5288059;28;20384;-73
2023/03/19 13:25:14;;;;;;;19.05;17.25;;;;;;;-145.79;64.60;77483.25;5286979;28;20107;-74
2023/03/19 13:27:55;;;;;;;19.35;17.45;;;;;;;-145.79;64.52;77481.13;5284894;28;20024;-75
2023/03/19 13:30:27;;;;;;;22.55;20.33;;;;;;;-145.79;64.14;77519.28;5285236;28;20107;-75
2023/03/19 13:33:05;;;;;;;20.75;18.67;;;;;;;-145.79;65.72;77542.59;5286516;28;20446;-75
2023/03/19 13:35:41;;;;;;;23.02;20.73;;;;;;;-145.79;65.81;77529.88;5287336;28;20048;-76
2023/03/19 13:38:14;;;;;;;23.83;21.50;;;;;;;-145.79;64.87;77495.97;5288815;28;20025;-76
2023/03/19 13:40:59;;;;;;;21.50;19.33;;;;;;;-145.79;64.28;77500.22;5286521;28;20040;-75
2023/03/19 13:43:30;;;;;;;23.70;21.48;;;;;;;-145.79;64.68;77498.09;5285215;28;20025;-76
2023/03/19 13:46:14;;;;;;;23.52;21.08;;;;;;;-145.79;64.90;77512.94;5285718;28;20034;-75
2023/03/19 13:48:46;;;;;;;24.98;22.30;;;;;;;-145.79;65.26;77538.38;5284402;28;20040;-76
2023/03/19 13:51:17;;;;;;;25.00;22.50;;;;;;;-145.79;65.74;77544.72;5284574;28;20032;-75
2023/03/19 13:53:55;;;;;;;26.02;23.45;;;;;;;-145.79;66.21;77548.97;5283747;28;20078;-75
2023/03/19 13:56:27;;;;;;;26.52;23.85;;;;;;;-145.79;66.03;77563.81;5285153;28;20048;-75
2023/03/19 13:59:14;;;;;;;21.90;19.90;;;;;;;-145.79;64.00;77551.09;5285674;28;20372;-74
2023/03/19 14:01:46;;;;;;;19.70;17.85;;;;;;;-145.79;63.36;77548.97;5284676;28;20484;-75
2023/03/19 14:04:31;;;;;;;27.40;24.70;;;;;;;-145.79;63.73;77548.97;5285588;28;20020;-74
2023/03/19 14:07:10;;;;;;;21.88;19.83;;;;;;;-145.79;63.71;77553.22;5285112;28;20028;-76
2023/03/19 14:09:47;;;;;;;21.02;18.88;;;;;;;-145.79;63.65;77546.84;5283221;28;20039;-76
2023/03/19 14:12:21;;;;;;;26.50;23.88;;;;;;;-145.79;64.01;77529.88;5284417;28;20475;-75
2023/03/19 14:14:52;;;;;;;30.52;27.35;;;;;;;-145.79;62.72;77498.09;5283459;28;20036;-76
2023/03/19 14:17:41;;;;;;;26.33;23.73;;;;;;;-145.79;62.36;77459.94;5283783;28;20032;-75
2023/03/19 14:20:12;;;;;;;23.08;20.73;;;;;;;-145.79;61.64;77466.31;5283648;28;20025;-75
2023/03/19 14:23:02;;;;;;;22.42;20.13;;;;;;;-145.79;61.93;77474.78;5282783;28;20032;-75
2023/03/19 14:25:55;;;;;;;21.15;19.15;;;;;;;-145.79;62.59;77466.31;5283465;28;20349;-76
2023/03/19 14:28:53;;;;;;;19.15;17.17;;;;;;;-145.79;61.61;77474.78;5283207;28;20036;-76
2023/03/19 14:31:34;;;;;;;18.60;16.83;;;;;;;-145.79;60.45;77449.34;5284364;28;20029;-74
2023/03/19 14:34:32;;;;;;;19.67;15.38;;;;;;;-145.79;60.58;77453.59;5293381;28;20365;-76
2023/03/19 14:37:25;;;;;;;18.15;16.38;;;;;;;-145.79;60.74;77453.59;5282686;28;20027;-76
2023/03/19 14:40:13;;;;;;;16.25;14.55;;;;;;;-145.79;60.63;77423.91;5282846;28;20047;-76
2023/03/19 14:42:54;;;;;;;15.60;14.10;;;;;;;-145.79;59.49;77436.63;5283172;28;20511;-76
2023/03/19 14:45:57;;;;;;;17.67;14.80;;;;;;;-145.79;60.04;77430.25;5282471;28;20021;-75
2023/03/19 14:48:41;;;;;;;15.52;13.85;;;;;;;-145.79;59.96;77447.22;5283002;28;20043;-75
2023/03/19 14:51:49;;;;;;;20.05;18.10;;;;;;;-145.79;60.15;77462.06;5281312;28;20042;-73
2023/03/19 14:54:34;;;;;;;12.65;11.25;;;;;;;-145.79;59.61;77483.25;5275899;28;20157;-74
2023/03/19 14:57:13;;;;;;;13.20;11.90;;;;;;;-145.79;60.20;77498.09;5282044;28;20039;-75
2023/03/19 14:59:47;;;;;;;17.42;14.50;;;;;;;-145.79;60.70;77495.97;5282214;28;20076;-75
2023/03/19 15:02:24;;;;;;;16.30;14.80;;;;;;;-145.79;61.15;77498.09;5282973;28;20017;-75
2023/03/19 15:04:55;;;;;;;17.90;16.08;;;;;;;-145.79;61.30;77508.69;5282238;28;20025;-74
2023/03/19 15:07:37;;;;;;;17.45;15.75;;;;;;;-145.79;61.14;77506.56;5282760;28;20043;-76
2023/03/19 15:10:16;;;;;;;18.50;16.60;;;;;;;-145.79;61.32;77498.09;5282324;28;20199;-75
2023/03/19 15:13:00;;;;;;;19.08;17.17;;;;;;;-145.79;61.01;77485.38;5261325;28;20043;-77
2023/03/19 15:16:16;;;;;;;17.25;15.55;;;;;;;-145.79;60.41;77493.84;5259919;28;20033;-76
2023/03/19 15:18:48;;;;;;;17.23;15.43;;;;;;;-145.79;60.50;77500.22;5243212;28;20071;-75
2023/03/19 15:21:20;;;;;;;18.05;16.00;;;;;;;-145.79;60.23;77500.22;5261825;28;20468;-76
2023/03/19 15:23:51;;;;;;;18.08;16.27;;;;;;;-145.79;60.50;77489.63;5265275;28;20395;-76
2023/03/19 15:26:31;;;;;;;18.20;16.30;;;;;;;-145.79;60.66;77483.25;5284840;28;20032;-75
2023/03/19 15:29:12;;;;;;;15.60;13.95;;;;;;;-145.79;59.41;77455.69;5286080;28;20025;-75
2023/03/19 15:31:50;;;;;;;14.88;13.38;;;;;;;-145.79;58.75;77428.16;5285352;28;20096;-76
2023/03/19 15:34:27;;;;;;;13.32;12.07;;;;;;;-145.79;57.85;77428.16;5281499;28;20024;-75
2023/03/19 15:37:14;;;;;;;14.60;13.20;;;;;;;-145.79;58.54;77411.19;5284223;28;20100;-76
2023/03/19 15:39:50;;;;;;;14.65;13.30;;;;;;;-145.79;59.05;77419.66;5283084;28;20032;-76
2023/03/19 15:42:25;;;;;;;15.13;13.55;;;;;;;-145.79;58.82;77423.91;5283625;28;20044;-75
2023/03/19 15:45:06;;;;;;;15.23;13.75;;;;;;;-145.79;58.55;77428.16;5284719;28;20039;-76
2023/03/19 15:47:45;;;;;;;15.52;13.90;;;;;;;-145.79;59.07;77476.91;5284045;28;20024;-75
2023/03/19 15:50:22;;;;;;;15.88;14.30;;;;;;;-145.79;59.87;77512.94;5286159;28;20435;-76
2023/03/19 15:52:57;;;;;;;16.40;14.80;;;;;;;-145.79;60.03;77500.22;5284103;28;20103;-76
2023/03/19 15:55:29;;;;;;;15.98;14.40;;;;;;;-145.79;60.17;77504.47;5285562;28;20115;-76
2023/03/19 15:58:08;;;;;;;16.80;15.00;;;;;;;-145.79;60.78;77521.41;5285889;28;20107;-75
2023/03/19 16:00:40;;;;;;;17.50;13.88;;;;;;;-145.79;61.70;77578.66;5284837;28;20127;-76
2023/03/19 16:03:17;;;;;;;17.65;14.02;;;;;;;-145.79;62.75;77618.91;5285801;28;20103;-74
2023/03/19 16:05:57;;;;;;;16.45;13.55;;;;;;;-145.79;63.46;77646.47;5285993;28;20498;-76
2023/03/19 16:08:30;;;;;;;17.65;14.20;;;;;;;-145.79;64.41;77646.47;5285229;28;20020;-76
2023/03/19 16:11:13;;;;;;;18.23;14.30;;;;;;;-145.79;65.26;77682.50;5285508;28;20033;-76
2023/03/19 16:14:01;;;;;;;15.75;13.18;;;;;;;-145.79;65.53;77691.00;5285577;28;20021;-75
2023/03/19 16:16:32;;;;;;;15.77;14.02;;;;;;;-145.79;66.28;77737.63;5284729;28;20027;-74
2023/03/19 16:19:04;;;;;;;18.27;14.32;;;;;;;-145.79;66.25;77756.72;5285597;28;20020;-75
2023/03/19 16:21:39;;;;;;;14.75;13.18;;;;;;;-145.79;67.02;77750.34;5284945;28;20433;-74
2023/03/19 16:24:29;;;;;;;14.35;12.52;;;;;;;-145.79;67.15;77773.66;5283707;28;20024;-74
2023/03/19 16:27:05;;;;;;;15.38;11.95;;;;;;;-145.79;67.49;77788.50;5285311;28;20024;-76
2023/03/19 16:29:40;;;;;;;104.22;89.68;;;;;;;-145.79;67.01;77792.75;5284695;28;20030;-74
